Time;durP1;ratioP1;P1;durP2;ratioP2;P2;SDS_P1;SDS_P2;PMS_P1;PMS_P2;Temp;Humidity;BMP_temperature;BMP_pressure;BME280_temperature;BME280_humidity;BME280_pressure;Samples;Min_cycle;Max_cycle;Signal;HPM_P1;HPM_P2
2021/04/13 00:01:28;;;;;;;0.70;0.60;;;-0.90;99.90;;;-0.41;100.00;-20670.31;5092346;28;20177;-68
2021/04/13 00:04:08;;;;;;;0.70;0.70;;;-0.90;99.90;;;-0.46;100.00;-20668.78;5092162;28;20210;-67
2021/04/13 00:06:41;;;;;;;0.70;0.70;;;-0.90;99.90;;;-0.49;100.00;-20668.22;5092458;28;20617;-67
2021/04/13 00:09:16;;;;;;;0.80;0.80;;;-0.90;99.90;;;-0.49;100.00;-20668.22;5091997;28;20557;-68
2021/04/13 00:11:46;;;;;;;0.70;0.60;;;-0.90;99.90;;;-0.53;100.00;-20667.09;5085537;28;20223;-68
2021/04/13 00:14:16;;;;;;;0.70;0.60;;;-0.90;99.90;;;-0.54;100.00;-20666.81;5077731;28;20663;-68
2021/04/13 00:16:45;;;;;;;0.70;0.70;;;-0.90;99.90;;;-0.61;100.00;-20664.88;5075211;28;20281;-68
2021/04/13 00:19:17;;;;;;;0.70;0.70;;;-0.90;99.90;;;-0.53;100.00;-20667.09;5087644;28;20649;-68
2021/04/13 00:21:45;;;;;;;0.70;0.60;;;-1.00;99.90;;;-0.56;100.00;-20666.13;5095982;28;20583;-68
2021/04/13 00:24:17;;;;;;;0.70;0.65;;;-1.10;99.90;;;-0.64;100.00;-20663.88;5095371;28;20188;-67
2021/04/13 00:26:48;;;;;;;0.70;0.60;;;-1.10;99.90;;;-0.58;100.00;-20665.69;5095808;28;20696;-67
2021/04/13 00:29:26;;;;;;;0.93;0.93;;;-1.10;99.90;;;-0.46;100.00;-20668.78;5076461;28;20213;-67
2021/04/13 00:31:56;;;;;;;0.70;0.70;;;-1.00;99.90;;;-0.43;100.00;-20669.75;5076574;28;20177;-66
2021/04/13 00:34:31;;;;;;;0.70;0.57;;;-1.00;99.90;;;-0.47;100.00;-20668.50;5089539;28;20589;-67
2021/04/13 00:37:20;;;;;;;0.70;0.60;;;-1.00;99.90;;;-0.59;100.00;-20665.44;5109120;28;20212;-67
2021/04/13 00:39:49;;;;;;;0.70;0.70;;;-1.00;99.90;;;-0.76;100.00;-20660.81;5095333;28;20631;-67
2021/04/13 00:42:26;;;;;;;0.70;0.70;;;-1.10;99.90;;;-0.70;100.00;-20662.19;5078314;28;20208;-67
2021/04/13 00:45:01;;;;;;;0.80;0.80;;;-1.10;99.90;;;-0.81;100.00;-20659.25;5076054;28;20173;-66
2021/04/13 00:47:33;;;;;;;1.08;1.08;;;-1.20;99.90;;;-0.81;100.00;-20659.25;5078815;28;20180;-67
2021/04/13 00:50:08;;;;;;;0.80;0.75;;;-1.30;99.90;;;-0.90;100.00;-20656.75;5093804;28;20184;-67
2021/04/13 00:52:39;;;;;;;0.70;0.60;;;-1.30;99.90;;;-0.85;100.00;-20658.28;5080522;28;20541;-70
2021/04/13 00:55:11;;;;;;;0.70;0.70;;;-1.40;99.90;;;-0.74;100.00;-20661.38;5074831;28;20227;-69
2021/04/13 00:57:44;;;;;;;0.70;0.70;;;-1.20;99.90;;;-0.78;100.00;-20660.25;5076817;28;20693;-68
2021/04/13 01:00:30;;;;;;;0.70;0.60;;;-1.20;99.90;;;-0.70;100.00;-20662.19;5075777;28;20174;-69
2021/04/13 01:02:58;;;;;;;0.70;0.60;;;-1.20;99.90;;;-0.70;100.00;-20662.34;5077278;28;20204;-69
2021/04/13 01:05:37;;;;;;;0.70;0.60;;;-1.10;99.90;;;-0.79;100.00;-20659.81;5092801;28;20192;-69
2021/04/13 01:08:29;;;;;;;0.70;0.70;;;-1.30;99.90;;;-0.90;100.00;-20656.75;5094534;28;20204;-69
2021/04/13 01:11:02;;;;;;;0.70;0.68;;;-1.30;99.90;;;-0.90;100.00;-20656.75;5095974;28;20179;-69
2021/04/13 01:13:44;;;;;;;0.70;0.60;;;-1.40;99.90;;;-1.06;100.00;-20652.53;5087447;28;20212;-68
2021/04/13 01:16:13;;;;;;;0.70;0.60;;;-1.50;99.90;;;-1.03;100.00;-20653.38;5075528;28;20633;-67
2021/04/13 01:18:43;;;;;;;1.00;1.00;;;-1.50;99.90;;;-1.02;100.00;-20653.50;5074086;28;20280;-68
2021/04/13 01:21:33;;;;;;;0.70;0.60;;;-1.50;99.90;;;-1.03;100.00;-20653.22;5089626;28;20195;-68
2021/04/13 01:24:13;;;;;;;0.70;0.60;;;-1.40;99.90;;;-0.99;100.00;-20654.50;5085227;28;20648;-68
2021/04/13 01:26:48;;;;;;;0.70;0.60;;;-1.40;99.90;;;-0.85;100.00;-20658.28;5075060;28;20295;-68
2021/04/13 01:29:18;;;;;;;0.70;0.68;;;-1.40;99.90;;;-0.69;100.00;-20662.63;5075943;28;20218;-68
2021/04/13 01:31:52;;;;;;;0.70;0.60;;;-1.40;99.90;;;-0.75;100.00;-20660.94;5093949;28;20185;-68
2021/04/13 01:34:26;;;;;;;0.70;0.70;;;-1.40;99.90;;;-0.88;100.00;-20657.31;5093805;28;20535;-68
2021/04/13 01:37:10;;;;;;;0.70;0.60;;;-1.40;99.90;;;-0.90;100.00;-20656.75;5076656;28;20181;-68
2021/04/13 01:40:14;;;;;;;0.77;0.70;;;-1.40;99.90;;;-0.91;100.00;-20656.47;5075183;28;20173;-68
2021/04/13 01:42:32;;;;;;;0.77;0.70;;;-1.40;99.90;;;-1.09;100.00;-20651.69;5081244;28;20227;-67
2021/04/13 01:45:05;;;;;;;0.70;0.63;;;-1.50;99.90;;;-1.17;100.00;-20649.44;5095088;28;20184;-68
2021/04/13 01:47:33;;;;;;;0.70;0.60;;;-1.60;99.90;;;-1.17;100.00;-20649.31;5081309;28;20188;-68
2021/04/13 01:50:05;;;;;;;0.80;0.70;;;-1.70;99.90;;;-1.24;100.00;-20647.50;5074153;28;20648;-68
2021/04/13 01:52:37;;;;;;;0.80;0.70;;;-1.60;99.90;;;-1.22;100.00;-20648.19;5082765;28;20589;-68
2021/04/13 01:55:08;;;;;;;0.80;0.80;;;-1.70;99.90;;;-1.16;100.00;-20649.59;5075969;28;20192;-67
2021/04/13 01:57:46;;;;;;;0.80;0.80;;;-1.70;99.90;;;-1.26;100.00;-20646.94;5084622;28;20288;-67
2021/04/13 02:00:21;;;;;;;0.70;0.70;;;-1.70;99.90;;;-1.29;100.00;-20646.09;5095012;28;20176;-68
2021/04/13 02:02:57;;;;;;;0.80;0.80;;;-1.70;99.90;;;-1.19;100.00;-20648.75;5088384;28;20185;-68
2021/04/13 02:05:29;;;;;;;0.70;0.70;;;-1.80;99.90;;;-1.24;100.00;-20647.50;5087918;28;20180;-68
2021/04/13 02:08:06;;;;;;;0.77;0.73;;;-1.70;99.90;;;-1.31;100.00;-20645.66;5094668;28;20197;-68
2021/04/13 02:10:41;;;;;;;0.70;0.60;;;-1.70;99.90;;;-1.33;100.00;-20645.09;5094753;28;20172;-68
2021/04/13 02:13:14;;;;;;;0.73;0.70;;;-1.70;99.90;;;-1.34;100.00;-20644.69;5094504;28;20744;-68
2021/04/13 02:15:57;;;;;;;0.70;0.60;;;-1.80;99.90;;;-1.42;100.00;-20642.44;5084655;28;20193;-68
2021/04/13 02:18:30;;;;;;;0.70;0.65;;;-1.90;99.90;;;-1.45;100.00;-20641.75;5074338;28;20222;-68
2021/04/13 02:20:58;;;;;;;0.70;0.60;;;-1.90;99.90;;;-1.47;100.00;-20641.19;5073587;28;20657;-68
2021/04/13 02:23:30;;;;;;;0.80;0.77;;;-1.80;99.90;;;-1.48;100.00;-20641.03;5074259;28;20191;-67
2021/04/13 02:26:00;;;;;;;0.70;0.60;;;-1.90;99.90;;;-1.47;100.00;-20641.31;5074055;28;20254;-68
2021/04/13 02:28:29;;;;;;;0.70;0.60;;;-1.90;99.90;;;-1.41;100.00;-20642.88;5073991;28;20207;-68
2021/04/13 02:30:57;;;;;;;0.70;0.70;;;-1.90;99.90;;;-1.42;100.00;-20642.44;5072902;28;20750;-68
2021/04/13 02:33:35;;;;;;;0.70;0.60;;;-1.80;99.90;;;-1.42;100.00;-20642.59;5073490;28;20187;-69
2021/04/13 02:36:22;;;;;;;0.80;0.80;;;-1.80;99.90;;;-1.48;100.00;-20640.91;5073891;28;20260;-69
2021/04/13 02:38:54;;;;;;;0.70;0.70;;;-1.90;99.90;;;-1.47;100.00;-20641.19;5077383;28;20270;-69
2021/04/13 02:41:28;;;;;;;0.70;0.70;;;-1.90;99.90;;;-1.54;100.00;-20639.38;5086083;28;20183;-68
2021/04/13 02:43:57;;;;;;;0.70;0.63;;;-2.00;99.90;;;-1.48;100.00;-20641.03;5094121;28;20173;-68
2021/04/13 02:46:31;;;;;;;0.77;0.75;;;-2.00;99.90;;;-1.58;100.00;-20638.25;5091769;28;20191;-68
2021/04/13 02:49:05;;;;;;;0.70;0.65;;;-2.00;99.90;;;-1.60;100.00;-20637.53;5093093;28;20226;-68
2021/04/13 02:51:36;;;;;;;0.70;0.60;;;-2.00;99.90;;;-1.60;100.00;-20637.69;5093578;28;20180;-67
2021/04/13 02:54:12;;;;;;;0.70;0.70;;;-2.10;99.90;;;-1.64;100.00;-20636.56;5083352;28;20549;-69
2021/04/13 02:56:43;;;;;;;0.70;0.60;;;-2.00;99.90;;;-1.55;100.00;-20639.06;5073531;28;20219;-69
2021/04/13 02:59:23;;;;;;;0.73;0.70;;;-2.10;99.90;;;-1.57;100.00;-20638.38;5073875;28;20267;-68
2021/04/13 03:01:58;;;;;;;0.70;0.70;;;-2.10;99.90;;;-1.59;100.00;-20637.81;5075842;28;20215;-68
2021/04/13 03:04:28;;;;;;;0.70;0.70;;;-2.10;99.90;;;-1.50;100.00;-20640.47;5076565;28;20216;-68
2021/04/13 03:06:58;;;;;;;1.20;1.10;;;-2.10;99.90;;;-1.41;100.00;-20642.72;5073999;28;20196;-68
2021/04/13 03:09:29;;;;;;;0.70;0.70;;;-2.10;99.90;;;-1.47;100.00;-20641.31;5094004;28;20187;-68
2021/04/13 03:12:02;;;;;;;0.70;0.70;;;-2.00;99.90;;;-1.41;100.00;-20642.72;5092410;28;20208;-68
2021/04/13 03:14:37;;;;;;;0.70;0.65;;;-2.10;99.90;;;-1.50;100.00;-20640.47;5090635;28;20185;-67
2021/04/13 03:17:11;;;;;;;0.80;0.80;;;-2.10;99.90;;;-1.53;100.00;-20639.63;5090951;28;20262;-68
2021/04/13 03:19:39;;;;;;;0.70;0.60;;;-2.00;99.90;;;-1.46;100.00;-20641.47;5073353;28;20239;-67
2021/04/13 03:22:08;;;;;;;7.70;1.88;;;-1.90;99.90;;;-1.28;100.00;-20646.38;5085136;28;20188;-67
2021/04/13 03:24:40;;;;;;;0.90;0.90;;;-1.80;99.90;;;-1.27;100.00;-20646.66;5077273;28;20205;-67
2021/04/13 03:27:11;;;;;;;0.70;0.60;;;-1.90;99.90;;;-1.25;100.00;-20647.22;5073111;28;20209;-68
2021/04/13 03:29:49;;;;;;;0.70;0.70;;;-1.90;99.90;;;-1.37;100.00;-20643.84;5073224;28;20208;-67
2021/04/13 03:32:21;;;;;;;0.70;0.70;;;-1.80;99.90;;;-1.38;100.00;-20643.56;5074225;28;20189;-67
2021/04/13 03:34:49;;;;;;;0.70;0.60;;;-1.90;99.90;;;-1.37;100.00;-20643.97;5088597;28;20707;-67
2021/04/13 03:37:17;;;;;;;0.73;0.70;;;-2.00;99.90;;;-1.46;100.00;-20641.47;5093160;28;20182;-68
2021/04/13 03:39:47;;;;;;;0.80;0.70;;;-2.10;99.90;;;-1.47;100.00;-20641.19;5091705;28;20204;-68
2021/04/13 03:42:19;;;;;;;0.93;0.93;;;-2.10;99.90;;;-1.64;100.00;-20636.56;5084569;28;20351;-69
2021/04/13 03:44:49;;;;;;;0.80;0.80;;;-2.10;99.90;;;-1.58;100.00;-20638.09;5075951;28;20578;-68
2021/04/13 03:47:26;;;;;;;0.75;0.70;;;-2.10;99.90;;;-1.56;100.00;-20638.81;5077490;28;20184;-67
2021/04/13 03:49:54;;;;;;;0.80;0.80;;;-2.20;99.90;;;-1.63;100.00;-20636.84;5093912;28;20215;-69
2021/04/13 03:52:26;;;;;;;0.80;0.70;;;-2.20;99.90;;;-1.69;100.00;-20635.16;5096234;28;20195;-67
2021/04/13 03:54:54;;;;;;;0.70;0.70;;;-2.30;99.90;;;-1.67;100.00;-20635.72;5079658;28;20191;-67
2021/04/13 03:57:31;;;;;;;0.70;0.70;;;-2.40;99.90;;;-1.68;100.00;-20635.44;5077744;28;20228;-68
2021/04/13 04:00:05;;;;;;;0.70;0.70;;;-2.30;99.90;;;-1.71;100.00;-20634.59;5077096;28;20197;-67
2021/04/13 04:02:33;;;;;;;0.70;0.70;;;-2.40;99.90;;;-1.68;100.00;-20635.44;5076902;28;20540;-66
2021/04/13 04:05:09;;;;;;;0.70;0.70;;;-2.40;99.90;;;-1.64;100.00;-20636.56;5094630;28;20212;-67
2021/04/13 04:07:47;;;;;;;0.70;0.60;;;-2.30;99.90;;;-1.65;100.00;-20636.28;5094313;28;20184;-67
2021/04/13 04:10:48;;;;;;;0.70;0.70;;;-2.30;99.90;;;-1.63;100.00;-20636.69;5097094;28;20172;-67
2021/04/13 04:13:30;;;;;;;0.70;0.70;;;-2.30;99.90;;;-1.72;100.00;-20634.31;5094700;28;20242;-68
2021/04/13 04:16:11;;;;;;;0.80;0.77;;;-2.30;99.90;;;-1.78;100.00;-20632.63;5097064;28;20230;-68
2021/04/13 04:18:42;;;;;;;0.70;0.70;;;-2.30;99.90;;;-1.78;100.00;-20632.63;5088829;28;20199;-67
2021/04/13 04:21:28;;;;;;;0.80;0.80;;;-2.40;99.90;;;-1.89;100.00;-20629.53;5094842;28;20188;-67
2021/04/13 04:24:00;;;;;;;0.90;0.90;;;-2.40;99.90;;;-1.78;100.00;-20632.63;5087216;28;20197;-67
2021/04/13 04:26:33;;;;;;;0.70;0.60;;;-2.50;99.90;;;-1.78;100.00;-20632.63;5076719;28;20243;-67
2021/04/13 04:29:21;;;;;;;0.70;0.60;;;-2.50;99.90;;;-1.80;100.00;-20632.06;5096388;28;20629;-67
2021/04/13 04:31:48;;;;;;;0.98;0.93;;;-2.50;99.90;;;-1.82;100.00;-20631.66;5095073;28;20168;-69
2021/04/13 04:35:02;;;;;;;0.70;0.70;;;-2.40;99.90;;;-1.81;100.00;-20631.78;5084091;28;20550;-67
2021/04/13 04:37:34;;;;;;;0.70;0.60;;;-2.50;99.90;;;-1.79;100.00;-20632.34;5068735;28;20192;-68
2021/04/13 04:40:40;;;;;;;0.70;0.60;;;-2.40;99.90;;;-1.59;100.00;-20637.81;5081786;28;20203;-67
2021/04/13 04:43:14;;;;;;;1.90;1.70;;;-2.40;99.90;;;-1.43;100.00;-20642.31;5035004;28;20557;-68
2021/04/13 04:45:52;;;;;;;0.85;0.85;;;-2.00;99.90;;;-1.34;100.00;-20644.69;5037138;28;20202;-67
2021/04/13 04:48:29;;;;;;;0.70;0.70;;;-2.00;99.90;;;-1.39;100.00;-20643.28;5073535;28;20534;-67
2021/04/13 04:50:59;;;;;;;0.63;0.57;;;-2.00;99.90;;;-1.41;100.00;-20642.72;5075902;28;20181;-67
2021/04/13 04:53:28;;;;;;;0.80;0.77;;;-2.00;99.90;;;-1.44;100.00;-20642.03;5075600;28;20196;-68
2021/04/13 04:55:58;;;;;;;0.70;0.60;;;-2.00;99.90;;;-1.41;100.00;-20642.88;5082540;28;20245;-67
2021/04/13 04:58:26;;;;;;;0.70;0.68;;;-2.10;99.90;;;-1.27;100.00;-20646.66;5094637;28;20208;-66
2021/04/13 05:00:54;;;;;;;0.80;0.80;;;-2.00;99.90;;;-1.07;100.00;-20652.13;5092665;28;20226;-68
2021/04/13 05:03:24;;;;;;;0.70;0.70;;;-1.80;99.90;;;-0.95;100.00;-20655.34;5086781;28;20181;-67
2021/04/13 05:05:53;;;;;;;0.70;0.60;;;-1.70;99.90;;;-0.75;100.00;-20661.06;5057698;28;20181;-67
2021/04/13 05:08:21;;;;;;;0.80;0.70;;;-1.60;99.90;;;-0.67;100.00;-20663.19;5074637;28;20170;-68
2021/04/13 05:10:50;;;;;;;0.70;0.70;;;-1.50;99.90;;;-0.59;100.00;-20665.44;5075847;28;20173;-68
2021/04/13 05:13:18;;;;;;;0.70;0.60;;;-1.40;99.90;;;-0.45;100.00;-20669.06;5077807;28;20259;-68
2021/04/13 05:15:46;;;;;;;0.70;0.60;;;-1.30;99.90;;;-0.38;100.00;-20671.03;5075866;28;20575;-69
2021/04/13 05:18:14;;;;;;;0.70;0.50;;;-1.30;99.90;;;-0.26;100.00;-20674.38;5075722;28;20201;-68
2021/04/13 05:20:41;;;;;;;0.70;0.60;;;-1.20;99.90;;;-0.17;100.00;-20676.91;5075487;28;20652;-68
2021/04/13 05:23:08;;;;;;;0.70;0.60;;;-1.00;99.90;;;-0.01;100.00;-20681.38;5075311;28;20193;-68
2021/04/13 05:25:35;;;;;;;0.70;0.63;;;-0.80;99.90;;;0.16;100.00;-20685.88;5082015;28;20216;-69
2021/04/13 05:28:02;;;;;;;0.70;0.65;;;-0.70;99.90;;;0.29;100.00;-20689.50;5073593;28;20295;-68
2021/04/13 05:30:30;;;;;;;0.70;0.60;;;-0.60;99.90;;;0.55;100.00;-20696.50;5086646;28;20206;-68
2021/04/13 05:32:57;;;;;;;0.70;0.60;;;-0.40;99.90;;;0.68;100.00;-20700.13;5083627;28;21198;-67
2021/04/13 05:35:25;;;;;;;0.70;0.70;;;-0.30;99.90;;;0.82;100.00;-20704.06;5093562;28;20245;-68
2021/04/13 05:37:52;;;;;;;1.08;1.08;;;-0.20;99.90;;;0.78;100.00;-20702.78;5080251;28;20637;-68
2021/04/13 05:40:24;;;;;;;0.70;0.55;;;-0.20;99.90;;;0.84;100.00;-20704.59;5084965;28;20593;-69
2021/04/13 05:42:54;;;;;;;1.05;0.90;;;-0.10;99.90;;;0.90;100.00;-20706.28;5089802;28;20223;-68
2021/04/13 05:45:24;;;;;;;0.70;0.63;;;0.00;99.90;;;0.98;100.00;-20708.25;5086301;28;20564;-68
2021/04/13 05:47:51;;;;;;;0.70;0.70;;;0.10;99.90;;;1.05;100.00;-20710.19;5089903;28;20188;-67
2021/04/13 05:50:23;;;;;;;0.70;0.60;;;0.10;99.90;;;1.05;100.00;-20710.19;5091979;28;20199;-67
2021/04/13 05:52:50;;;;;;;1.45;1.35;;;0.10;99.90;;;1.21;100.00;-20714.69;5088236;28;20180;-67
2021/04/13 05:55:18;;;;;;;0.70;0.60;;;0.20;99.90;;;1.35;100.00;-20718.59;5075240;28;20665;-69
2021/04/13 05:57:49;;;;;;;0.70;0.60;;;0.40;99.90;;;1.50;100.00;-20722.63;5080479;28;20215;-68
2021/04/13 06:00:19;;;;;;;0.70;0.70;;;0.40;99.90;;;1.47;100.00;-20721.81;5083212;28;20205;-68
2021/04/13 06:02:46;;;;;;;0.70;0.60;;;0.40;99.90;;;1.45;100.00;-20721.38;5087812;28;20215;-69
2021/04/13 06:05:15;;;;;;;0.70;0.60;;;0.40;99.90;;;1.59;100.00;-20725.16;5092793;28;20223;-70
2021/04/13 06:07:46;;;;;;;0.70;0.60;;;0.50;99.90;;;1.62;100.00;-20725.84;5078100;28;20173;-68
2021/04/13 06:10:14;;;;;;;0.70;0.60;;;0.60;99.90;;;1.91;100.00;-20733.97;5074524;28;20511;-68
2021/04/13 06:12:41;;;;;;;0.70;0.68;;;0.80;99.90;;;1.84;100.00;-20732.00;5088673;28;20228;-69
2021/04/13 06:15:12;;;;;;;0.70;0.60;;;0.80;99.90;;;2.00;100.00;-20736.34;5075137;28;20246;-69
2021/04/13 06:17:39;;;;;;;0.70;0.60;;;0.80;99.90;;;2.12;100.00;-20739.53;5085668;28;20558;-69
2021/04/13 06:20:08;;;;;;;0.70;0.60;;;0.80;99.90;;;2.04;100.00;-20737.31;5088092;28;20263;-67
2021/04/13 06:22:35;;;;;;;0.70;0.60;;;0.90;99.90;;;2.18;100.00;-20741.22;5098913;28;20675;-67
2021/04/13 06:25:04;;;;;;;0.70;0.60;;;1.00;99.90;;;2.33;100.00;-20745.28;5079051;28;20222;-67
2021/04/13 06:27:31;;;;;;;0.70;0.60;;;1.10;99.90;;;2.44;100.00;-20748.34;5086016;28;20611;-67
2021/04/13 06:29:58;;;;;;;0.70;0.60;;;1.20;99.90;;;2.45;100.00;-20748.47;5073882;28;20189;-67
2021/04/13 06:32:25;;;;;;;0.70;0.60;;;1.20;99.90;;;2.84;100.00;-20759.22;5089682;28;20195;-67
2021/04/13 06:34:53;;;;;;;0.70;0.60;;;1.30;99.90;;;2.90;100.00;-20761.03;5075573;28;20185;-67
2021/04/13 06:37:20;;;;;;;0.70;0.70;;;1.50;99.90;;;3.14;100.00;-20767.59;5083496;28;20264;-68
2021/04/13 06:39:47;;;;;;;0.73;0.70;;;1.60;99.90;;;3.19;100.00;-20768.84;5073812;28;20200;-67
2021/04/13 06:42:57;;;;;;;1.10;1.05;;;1.70;99.90;;;3.23;100.00;-20769.97;5079954;28;20303;-69
2021/04/13 06:45:34;;;;;;;0.90;0.90;;;1.60;99.90;;;3.29;100.00;-20771.66;5103472;28;20237;-68
2021/04/13 06:48:30;;;;;;;0.70;0.60;;;1.70;99.90;;;3.45;100.00;-20775.97;5083746;28;20188;-68
2021/04/13 06:51:06;;;;;;;0.60;0.60;;;1.90;99.90;;;3.76;100.00;-20784.34;5086915;28;20197;-68
2021/04/13 06:53:53;;;;;;;0.63;0.52;;;1.90;99.90;;;4.11;100.00;-20793.97;5081673;28;20185;-68
2021/04/13 06:56:55;;;;;;;0.93;0.93;;;1.80;99.90;;;3.70;100.00;-20782.66;5088579;28;20283;-67
2021/04/13 06:59:54;;;;;;;0.60;0.60;;;2.10;99.90;;;4.24;100.00;-20797.59;5079187;28;20200;-66
2021/04/13 07:02:27;;;;;;;0.70;0.60;;;2.30;99.90;;;3.97;100.00;-20790.06;5079647;28;20196;-69
2021/04/13 07:05:01;;;;;;;0.70;0.60;;;2.50;99.90;;;4.24;100.00;-20797.44;5084421;28;20184;-66
2021/04/13 07:07:35;;;;;;;0.70;0.60;;;2.70;99.90;;;4.11;100.00;-20793.97;5078788;28;20217;-68
2021/04/13 07:10:17;;;;;;;0.70;0.60;;;2.70;99.90;;;4.76;100.00;-20811.78;5071981;28;20173;-67
2021/04/13 07:12:53;;;;;;;1.10;1.00;;;2.60;99.90;;;4.82;100.00;-20813.47;5077370;28;20461;-67
2021/04/13 07:15:28;;;;;;;1.03;0.93;;;2.60;99.90;;;4.46;100.00;-20803.44;5082195;28;20487;-66
2021/04/13 07:18:01;;;;;;;1.80;1.70;;;2.80;99.90;;;4.30;100.00;-20799.25;5083639;28;20953;-67
2021/04/13 07:20:34;;;;;;;1.23;1.13;;;3.00;99.90;;;4.83;100.00;-20813.75;5090203;28;20489;-67
2021/04/13 07:23:08;;;;;;;0.60;0.50;;;3.00;99.90;;;4.18;100.00;-20795.91;5083021;28;20432;-67
2021/04/13 07:25:42;;;;;;;1.87;1.67;;;3.00;99.90;;;4.64;100.00;-20808.44;5080002;28;20449;-67
2021/04/13 07:28:17;;;;;;;0.60;0.60;;;3.20;99.90;;;5.38;100.00;-20828.50;5081742;28;20843;-67
2021/04/13 07:30:50;;;;;;;0.70;0.60;;;3.30;99.90;;;5.52;100.00;-20832.53;5084463;28;20511;-67
2021/04/13 07:33:20;;;;;;;0.60;0.50;;;3.30;99.90;;;5.44;100.00;-20830.16;5080830;28;20453;-67
2021/04/13 07:35:49;;;;;;;0.70;0.60;;;3.40;99.90;;;5.57;100.00;-20833.78;5089041;28;20430;-67
2021/04/13 07:38:22;;;;;;;0.60;0.50;;;3.60;99.90;;;5.44;100.00;-20830.31;5092793;28;20775;-67
2021/04/13 07:40:53;;;;;;;0.60;0.50;;;3.80;99.90;;;5.32;100.00;-20827.09;5078904;28;20442;-66
2021/04/13 07:43:24;;;;;;;0.70;0.60;;;3.90;99.90;;;6.37;100.00;-20855.47;5083930;28;20906;-67
2021/04/13 07:46:08;;;;;;;0.60;0.50;;;4.00;99.90;;;6.58;100.00;-20861.31;5092552;28;20463;-67
2021/04/13 07:48:57;;;;;;;0.60;0.50;;;3.90;99.90;;;5.94;100.00;-20843.81;5082021;28;20431;-67
2021/04/13 07:51:41;;;;;;;5.80;1.43;;;4.00;99.90;;;6.21;100.00;-20851.19;5078525;28;20439;-67
2021/04/13 07:54:42;;;;;;;0.70;0.60;;;4.10;99.90;;;6.49;100.00;-20858.97;5086960;28;20520;-66
2021/04/13 07:57:17;;;;;;;0.60;0.50;;;4.20;99.90;;;6.77;100.00;-20866.59;5072816;28;20442;-67
2021/04/13 07:59:56;;;;;;;0.60;0.50;;;4.10;99.90;;;6.72;100.00;-20865.06;5079078;28;20460;-66
2021/04/13 08:02:24;;;;;;;0.70;0.60;;;4.20;99.90;;;6.78;100.00;-20866.88;5075792;28;20426;-67
2021/04/13 08:04:52;;;;;;;2.07;1.60;;;4.40;99.90;;;7.13;100.00;-20876.31;5083551;28;20478;-67
2021/04/13 08:07:24;;;;;;;0.60;0.60;;;4.40;99.90;;;6.49;100.00;-20858.81;5092506;28;20430;-68
2021/04/13 08:10:16;;;;;;;2.00;1.90;;;4.50;99.90;;;7.11;100.00;-20875.78;5092835;28;20416;-67
2021/04/13 08:12:56;;;;;;;0.70;0.60;;;4.60;99.90;;;6.88;100.00;-20869.38;5079412;28;20542;-67
2021/04/13 08:15:48;;;;;;;0.70;0.70;;;4.60;99.90;;;6.98;100.00;-20872.16;5072693;28;20530;-66
2021/04/13 08:18:34;;;;;;;0.70;0.60;;;5.10;99.90;;;7.55;100.00;-20887.56;5083934;28;20427;-68
2021/04/13 08:21:22;;;;;;;0.70;0.60;;;5.40;99.90;;;7.49;100.00;-20886.03;5073480;28;20439;-67
2021/04/13 08:23:52;;;;;;;1.40;1.30;;;5.40;99.90;;;7.69;100.00;-20891.47;5084282;28;20984;-66
2021/04/13 08:26:41;;;;;;;0.70;0.50;;;5.40;99.90;;;6.97;100.00;-20872.03;5079360;28;20800;-66
2021/04/13 08:29:17;;;;;;;0.90;0.80;;;5.10;99.90;;;7.52;100.00;-20886.88;5085421;28;20504;-66
2021/04/13 08:35:13;;;;;;;0.70;0.60;;;5.20;99.90;;;8.32;100.00;-20908.53;5080072;28;20431;-66
2021/04/13 08:37:52;;;;;;;0.70;0.60;;;5.40;99.90;;;9.10;100.00;-20929.88;5076174;28;20931;-67
2021/04/13 08:40:33;;;;;;;0.70;0.60;;;5.90;99.90;;;9.51;100.00;-20940.97;5076263;28;20454;-67
2021/04/13 08:43:20;;;;;;;0.70;0.63;;;6.50;99.90;;;9.47;100.00;-20939.84;5079834;28;20469;-67
2021/04/13 08:46:10;;;;;;;0.70;0.60;;;7.30;99.90;;;11.01;100.00;-20981.50;5085154;28;20435;-68
2021/04/13 08:48:42;;;;;;;0.80;0.80;;;7.30;99.90;;;10.51;100.00;-20968.09;5083158;28;20473;-67
2021/04/13 08:51:14;;;;;;;0.70;0.60;;;7.30;99.90;;;12.32;100.00;-21017.03;5087313;28;20466;-66
2021/04/13 08:53:48;;;;;;;1.40;0.87;;;7.70;99.90;;;12.81;100.00;-21030.28;5088696;28;20521;-65
2021/04/13 08:56:22;;;;;;;0.70;0.70;;;8.80;99.90;;;13.58;100.00;-21051.09;5081177;28;20437;-69
2021/04/13 08:58:53;;;;;;;0.80;0.70;;;8.80;99.90;;;14.01;100.00;-21062.81;5083758;28;20454;-68
2021/04/13 09:01:29;;;;;;;1.27;0.90;;;8.90;99.90;;;12.91;100.00;-21032.88;5078066;28;20439;-66
2021/04/13 09:03:58;;;;;;;0.70;0.60;;;9.10;99.90;;;13.17;100.00;-21039.94;5082655;28;20434;-66
2021/04/13 09:06:56;;;;;;;1.27;0.80;;;9.10;99.90;;;14.04;100.00;-21063.34;5082010;28;20853;-66
2021/04/13 09:09:44;;;;;;;0.70;0.60;;;9.40;99.90;;;13.81;100.00;-21057.28;5083823;28;20423;-66
2021/04/13 09:12:26;;;;;;;0.70;0.60;;;9.60;99.90;;;12.57;100.00;-21023.78;5075879;28;21000;-66
2021/04/13 09:15:06;;;;;;;0.80;0.70;;;9.40;99.90;;;12.79;100.00;-21029.84;5092398;28;20458;-66
2021/04/13 09:17:45;;;;;;;0.70;0.60;;;8.70;99.90;;;13.95;100.00;-21061.16;5075233;28;20491;-66
2021/04/13 09:20:25;;;;;;;0.70;0.60;;;9.40;99.90;;;13.63;100.00;-21052.47;5075373;28;20932;-67
2021/04/13 09:23:09;;;;;;;0.80;0.70;;;10.40;99.90;;;14.76;100.00;-21082.91;5083301;28;20406;-66
2021/04/13 09:25:44;;;;;;;0.70;0.60;;;10.40;99.90;;;14.17;100.00;-21067.06;5081240;28;20422;-68
2021/04/13 09:28:15;;;;;;;0.80;0.80;;;10.80;99.90;;;13.81;100.00;-21057.28;5082878;28;20504;-66
2021/04/13 09:30:45;;;;;;;0.70;0.50;;;10.70;99.90;;;12.84;100.00;-21031.09;5084002;28;20821;-66
2021/04/13 09:33:30;;;;;;;1.10;1.00;;;10.90;99.90;;;15.68;100.00;-21107.66;5085794;28;20188;-67
2021/04/13 09:36:33;;;;;;;0.80;0.60;;;9.50;99.90;;;13.54;100.00;-21050.13;5087019;28;20433;-66
2021/04/13 09:39:38;;;;;;;0.70;0.60;;;10.00;99.90;;;13.17;100.00;-21039.94;5074222;28;20433;-68
2021/04/13 09:42:31;;;;;;;0.70;0.60;;;10.50;99.90;;;13.47;100.00;-21048.06;5080118;28;20902;-67
2021/04/13 09:45:14;;;;;;;0.70;0.70;;;10.80;99.90;;;13.98;100.00;-21061.97;5085919;28;20978;-67
2021/04/13 09:48:32;;;;;;;0.70;0.60;;;11.00;99.90;;;15.42;100.00;-21100.78;5073748;28;20382;-68
2021/04/13 09:51:14;;;;;;;0.70;0.60;;;11.10;99.90;;;13.23;100.00;-21041.72;5074396;28;20420;-67
2021/04/13 09:54:19;;;;;;;0.70;0.60;;;10.50;99.90;;;13.78;100.00;-21056.47;5081768;28;20482;-68
2021/04/13 09:57:50;;;;;;;0.70;0.60;;;11.70;99.90;;;15.07;100.00;-21091.16;5078657;28;20941;-67
2021/04/13 10:00:51;;;;;;;0.70;0.60;;;11.30;99.90;;;15.26;100.00;-21096.38;5075628;28;20459;-68
2021/04/13 10:04:11;;;;;;;0.80;0.70;;;11.00;99.90;;;13.71;100.00;-21054.53;5085499;28;20792;-68
2021/04/13 10:06:49;;;;;;;0.70;0.60;;;11.00;99.90;;;15.19;100.00;-21094.47;5076455;28;20443;-67
2021/04/13 10:09:24;;;;;;;0.70;0.60;;;11.50;99.90;;;16.96;100.00;-21142.13;5088281;28;20396;-69
2021/04/13 10:12:24;;;;;;;0.70;0.57;;;11.50;99.90;;;14.63;100.00;-21079.34;5082574;28;20472;-67
2021/04/13 10:15:42;;;;;;;0.70;0.60;;;11.90;99.90;;;15.44;100.00;-21101.34;5088495;28;20438;-67
2021/04/13 10:19:06;;;;;;;0.70;0.60;;;12.60;99.90;;;17.02;98.70;-21143.78;5073959;28;20451;-68
2021/04/13 10:22:29;;;;;;;0.80;0.60;;;12.20;99.90;;;15.11;100.00;-21092.25;5086668;28;20442;-67
2021/04/13 10:25:55;;;;;;;0.70;0.60;;;12.40;99.90;;;14.68;100.00;-21080.72;5070356;28;20451;-68
2021/04/13 10:29:22;;;;;;;0.70;0.60;;;12.90;99.90;;;14.95;100.00;-21088.00;5073758;28;20463;-69
2021/04/13 10:32:21;;;;;;;0.70;0.50;;;13.00;99.90;;;14.41;100.00;-21073.53;5082306;28;20778;-67
2021/04/13 10:36:02;;;;;;;0.70;0.60;;;12.40;99.90;;;13.83;100.00;-21057.72;5088995;28;20435;-67
2021/04/13 10:39:15;;;;;;;0.70;0.60;;;11.30;99.90;;;16.24;100.00;-21122.78;5085686;28;20419;-68
2021/04/13 10:42:51;;;;;;;0.80;0.73;;;11.90;99.90;;;15.52;91.42;-21103.25;5055464;28;20550;-68
2021/04/13 10:46:07;;;;;;;0.77;0.60;;;10.60;99.90;;;13.13;100.00;-21038.97;5032436;28;20429;-69
2021/04/13 10:49:04;;;;;;;0.70;0.70;;;10.80;99.90;;;12.95;100.00;-21034.00;5032743;28;20412;-69
2021/04/13 10:52:30;;;;;;;0.90;0.80;;;10.00;96.80;;;12.39;100.00;-21018.81;5082067;28;20445;-70
2021/04/13 10:55:33;;;;;;;2.20;1.20;;;8.90;93.30;;;11.48;100.00;-20994.22;5012223;28;20453;-68
2021/04/13 10:58:56;;;;;;;0.80;0.67;;;8.90;95.50;;;10.97;100.00;-20980.56;5088051;28;20462;-68
2021/04/13 11:02:10;;;;;;;0.80;0.70;;;8.50;94.90;;;10.07;100.00;-20956.06;5083433;28;20511;-67